createdAt,value
2018-11-04T00:02:09.176Z,22.70
2018-11-04T00:04:37.728Z,26.00
2018-11-04T00:07:06.065Z,24.60
2018-11-04T00:09:46.769Z,28.40
2018-11-04T00:12:15.316Z,25.80
2018-11-04T00:14:44.368Z,23.70
2018-11-04T00:17:18.267Z,25.43
2018-11-04T00:19:49.937Z,39.67
2018-11-04T00:22:18.319Z,29.37
2018-11-04T00:24:46.479Z,21.87
2018-11-04T00:27:18.866Z,27.77
2018-11-04T00:29:47.942Z,27.40
2018-11-04T00:32:16.207Z,21.43
2018-11-04T00:34:44.466Z,24.30
2018-11-04T00:37:12.374Z,26.30
2018-11-04T00:39:45.882Z,28.73
2018-11-04T00:42:14.134Z,27.13
2018-11-04T00:44:42.012Z,28.80
2018-11-04T00:47:12.048Z,26.93
2018-11-04T00:49:40.012Z,23.33
2018-11-04T00:52:08.146Z,24.13
2018-11-04T00:54:38.048Z,25.30
2018-11-04T00:57:06.093Z,23.67
2018-11-04T00:59:35.805Z,27.30
2018-11-04T01:02:05.093Z,24.37
2018-11-04T01:04:33.918Z,23.43
2018-11-04T01:07:04.367Z,29.13
2018-11-04T01:09:32.684Z,31.07
2018-11-04T01:12:00.618Z,26.27
2018-11-04T01:14:28.895Z,26.33
2018-11-04T01:16:56.660Z,29.97
2018-11-04T01:19:24.717Z,28.83
2018-11-04T01:21:52.534Z,27.80
2018-11-04T01:24:20.661Z,28.50
2018-11-04T01:26:48.689Z,26.30
2018-11-04T01:29:16.585Z,42.13
2018-11-04T01:32:04.820Z,28.73
2018-11-04T01:34:32.880Z,29.60
2018-11-04T01:37:02.460Z,29.03
2018-11-04T01:39:33.115Z,30.33
2018-11-04T01:42:01.887Z,27.30
2018-11-04T01:44:29.963Z,30.03
2018-11-04T01:46:59.816Z,29.93
2018-11-04T01:49:28.487Z,35.33
2018-11-04T01:51:56.232Z,36.00
2018-11-04T01:54:23.999Z,39.47
2018-11-04T01:56:52.631Z,29.60
2018-11-04T01:59:20.523Z,27.27
2018-11-04T02:01:48.338Z,33.83
2018-11-04T02:04:16.195Z,29.57
2018-11-04T02:06:44.244Z,27.80
2018-11-04T02:09:12.646Z,28.90
2018-11-04T02:11:40.985Z,39.40
2018-11-04T02:14:09.005Z,35.07
2018-11-04T02:16:49.902Z,25.97
2018-11-04T02:19:17.992Z,28.80
2018-11-04T02:21:46.024Z,34.33
2018-11-04T02:24:15.451Z,29.63
2018-11-04T02:26:43.156Z,28.37
2018-11-04T02:29:11.291Z,27.80
2018-11-04T02:31:39.079Z,29.43
2018-11-04T02:34:07.004Z,29.33
2018-11-04T02:36:34.736Z,30.03
2018-11-04T02:39:03.088Z,31.73
2018-11-04T02:41:30.855Z,31.70
2018-11-04T02:43:59.208Z,27.93
2018-11-04T02:46:31.191Z,25.27
2018-11-04T02:48:58.959Z,31.87
2018-11-04T02:51:28.284Z,31.57
2018-11-04T02:53:56.095Z,29.63
2018-11-04T02:56:29.370Z,28.43
2018-11-04T02:58:57.838Z,30.93
2018-11-04T03:01:27.383Z,29.67
2018-11-04T03:04:01.196Z,28.67
2018-11-04T03:06:29.020Z,29.07
2018-11-04T03:08:56.783Z,30.60
2018-11-04T03:11:25.040Z,28.10
2018-11-04T03:13:57.760Z,29.27
2018-11-04T03:16:25.649Z,32.70
2018-11-04T03:18:57.951Z,31.70
2018-11-04T03:21:26.926Z,30.23
2018-11-04T03:23:54.860Z,38.03
2018-11-04T03:26:23.274Z,36.53
2018-11-04T03:28:51.410Z,26.97
2018-11-04T03:31:19.722Z,28.27
2018-11-04T03:33:47.841Z,27.57
2018-11-04T03:36:16.224Z,33.53
2018-11-04T03:38:45.790Z,24.83
2018-11-04T03:41:14.734Z,36.73
2018-11-04T03:43:43.917Z,33.17
2018-11-04T03:46:11.643Z,33.53
2018-11-04T03:48:39.726Z,31.87
2018-11-04T03:51:07.610Z,36.20
2018-11-04T03:53:36.063Z,34.77
2018-11-04T03:56:04.825Z,29.73
2018-11-04T03:58:33.068Z,32.80
2018-11-04T04:01:12.654Z,26.00
2018-11-04T04:03:40.737Z,34.03
2018-11-04T04:06:10.537Z,31.20
2018-11-04T04:08:39.035Z,32.77
2018-11-04T04:11:07.276Z,32.40
2018-11-04T04:13:35.364Z,34.20
2018-11-04T04:16:04.089Z,27.67
2018-11-04T04:18:32.131Z,30.77
2018-11-04T04:21:06.304Z,33.83
2018-11-04T04:23:48.671Z,31.73
2018-11-04T04:26:20.323Z,36.50
2018-11-04T04:28:48.236Z,32.03
2018-11-04T04:31:15.966Z,33.77
2018-11-04T04:33:43.969Z,38.10
2018-11-04T04:36:12.399Z,30.53
2018-11-04T04:38:40.063Z,32.40
2018-11-04T04:41:07.909Z,34.57
2018-11-04T04:43:35.723Z,34.43
2018-11-04T04:46:03.689Z,38.97
2018-11-04T04:48:38.131Z,35.93
2018-11-04T04:51:05.870Z,34.57
2018-11-04T04:53:33.884Z,31.17
2018-11-04T04:56:01.682Z,34.00
2018-11-04T04:58:29.411Z,32.97
2018-11-04T05:00:57.192Z,35.10
2018-11-04T05:03:24.803Z,33.83
2018-11-04T05:05:53.628Z,37.30
2018-11-04T05:08:22.361Z,38.30
2018-11-04T05:10:50.414Z,35.63
2018-11-04T05:13:18.386Z,36.73
2018-11-04T05:15:46.366Z,33.10
2018-11-04T05:18:14.762Z,31.77
2018-11-04T05:20:42.432Z,34.60
2018-11-04T05:23:10.236Z,34.53
2018-11-04T05:25:38.004Z,34.70
2018-11-04T05:28:07.216Z,41.13
2018-11-04T05:30:34.910Z,34.00
2018-11-04T05:33:03.321Z,40.17
2018-11-04T05:35:31.759Z,34.73
2018-11-04T05:37:59.535Z,36.13
2018-11-04T05:40:27.252Z,34.67
2018-11-04T05:42:55.186Z,37.87
2018-11-04T05:45:22.887Z,37.00
2018-11-04T05:47:50.793Z,42.63
2018-11-04T05:50:18.429Z,39.57
2018-11-04T05:58:21.805Z,33.50
2018-11-04T06:00:49.596Z,34.37
2018-11-04T06:03:18.685Z,38.50
2018-11-04T06:05:46.749Z,37.70
2018-11-04T06:08:14.826Z,38.57
2018-11-04T06:10:42.680Z,33.77
2018-11-04T06:13:10.615Z,36.87
2018-11-04T06:15:38.732Z,37.20
2018-11-04T06:18:06.876Z,45.07
2018-11-04T06:20:34.582Z,36.07
2018-11-04T06:23:02.846Z,32.40
2018-11-04T06:25:30.769Z,39.27
2018-11-04T06:28:00.840Z,35.93
2018-11-04T06:30:28.637Z,42.43
2018-11-04T06:32:56.346Z,36.67
2018-11-04T06:35:24.373Z,36.20
2018-11-04T06:37:52.301Z,35.40
2018-11-04T06:40:20.227Z,38.67
2018-11-04T06:42:58.445Z,37.20
2018-11-04T06:45:44.321Z,34.70
2018-11-04T06:48:15.664Z,36.47
2018-11-04T06:50:43.487Z,37.20
2018-11-04T06:53:11.792Z,45.03
2018-11-04T06:55:39.681Z,42.33
2018-11-04T06:58:08.889Z,32.10
2018-11-04T07:00:36.923Z,36.30
2018-11-04T07:03:04.837Z,38.13
2018-11-04T07:05:32.518Z,37.93
2018-11-04T07:08:01.452Z,36.33
2018-11-04T07:10:29.382Z,34.17
2018-11-04T07:12:57.768Z,34.53
2018-11-04T07:15:25.927Z,36.40
2018-11-04T07:17:54.139Z,36.33
2018-11-04T07:20:21.857Z,32.63
2018-11-04T07:22:49.509Z,38.53
2018-11-04T07:25:17.276Z,35.23
2018-11-04T07:27:46.005Z,39.97
2018-11-04T07:30:13.965Z,35.77
2018-11-04T07:32:44.879Z,36.20
2018-11-04T07:35:12.723Z,35.80
2018-11-04T07:37:40.652Z,33.97
2018-11-04T07:40:08.827Z,37.43
2018-11-04T07:42:37.203Z,30.33
2018-11-04T07:45:05.848Z,39.63
2018-11-04T07:47:35.744Z,39.83
2018-11-04T07:50:13.507Z,38.77
2018-11-04T07:52:42.226Z,39.10
2018-11-04T07:55:09.913Z,37.87
2018-11-04T07:57:42.423Z,34.13
2018-11-04T08:00:13.284Z,38.20
2018-11-04T08:02:41.231Z,37.47
2018-11-04T08:05:23.549Z,40.10
2018-11-04T08:07:51.220Z,38.70
2018-11-04T08:10:19.149Z,41.20
2018-11-04T08:12:48.289Z,37.70
2018-11-04T08:15:17.452Z,39.43
2018-11-04T08:17:45.592Z,40.90
2018-11-04T08:20:19.859Z,37.13
2018-11-04T08:22:48.227Z,39.33
2018-11-04T08:25:16.437Z,39.93
2018-11-04T08:27:44.290Z,35.57
2018-11-04T08:30:12.028Z,38.20
2018-11-04T08:32:40.214Z,36.83
2018-11-04T08:35:08.444Z,42.10
2018-11-04T08:37:36.935Z,37.23
2018-11-04T08:40:05.426Z,36.77
2018-11-04T08:42:33.173Z,38.57
2018-11-04T08:45:00.852Z,41.30
2018-11-04T08:47:28.631Z,39.73
2018-11-04T08:49:58.128Z,37.80
2018-11-04T08:52:26.163Z,41.90
2018-11-04T08:54:54.041Z,37.77
2018-11-04T08:57:21.843Z,38.40
2018-11-04T08:59:50.853Z,38.17
2018-11-04T09:02:19.212Z,42.50
2018-11-04T09:04:47.276Z,35.63
2018-11-04T09:07:15.813Z,40.00
2018-11-04T09:09:43.815Z,44.67
2018-11-04T09:12:11.631Z,49.80
2018-11-04T09:14:39.296Z,41.27
2018-11-04T09:17:08.082Z,38.67
2018-11-04T09:19:35.956Z,43.90
2018-11-04T09:22:04.094Z,43.40
2018-11-04T09:24:41.107Z,52.73
2018-11-04T09:27:09.033Z,40.60
2018-11-04T09:29:36.958Z,41.80
2018-11-04T09:32:05.126Z,39.70
2018-11-04T09:34:37.655Z,38.40
2018-11-04T09:37:05.798Z,46.60
2018-11-04T09:39:33.730Z,38.73
2018-11-04T09:42:01.400Z,36.97
2018-11-04T09:44:29.124Z,41.90
2018-11-04T09:49:39.618Z,44.83
2018-11-04T09:52:07.512Z,43.63
2018-11-04T09:54:35.431Z,48.90
2018-11-04T09:57:03.190Z,41.70
2018-11-04T09:59:30.951Z,43.93
2018-11-04T10:01:59.444Z,41.30
2018-11-04T10:04:27.335Z,44.93
2018-11-04T10:07:13.094Z,39.80
2018-11-04T10:09:42.206Z,42.13
2018-11-04T10:12:09.830Z,45.70
2018-11-04T10:14:37.506Z,45.80
2018-11-04T10:17:06.556Z,39.17
2018-11-04T10:19:43.659Z,45.67
2018-11-04T10:22:14.339Z,38.80
2018-11-04T10:24:42.027Z,45.30
2018-11-04T10:27:09.723Z,40.40
2018-11-04T10:29:38.826Z,39.93
2018-11-04T10:32:06.664Z,42.57
2018-11-04T10:34:34.498Z,40.93
2018-11-04T10:37:02.968Z,41.57
2018-11-04T10:39:33.085Z,43.00
2018-11-04T10:42:00.865Z,39.60
2018-11-04T10:44:28.581Z,42.77
2018-11-04T10:46:56.224Z,39.83
2018-11-04T10:49:24.129Z,40.23
2018-11-04T10:51:51.748Z,45.90
2018-11-04T10:54:22.548Z,37.00
2018-11-04T10:56:50.179Z,34.17
2018-11-04T10:59:17.963Z,40.13
2018-11-04T11:01:45.680Z,39.97
2018-11-04T11:04:13.962Z,39.33
2018-11-04T11:06:41.744Z,52.40
2018-11-04T11:09:09.969Z,38.30
2018-11-04T11:11:38.868Z,35.27
2018-11-04T11:14:06.631Z,39.73
2018-11-04T11:16:44.365Z,38.30
2018-11-04T11:19:12.062Z,42.70
2018-11-04T11:21:40.324Z,37.93
2018-11-04T11:24:07.997Z,40.53
2018-11-04T11:26:36.346Z,37.70
2018-11-04T11:29:04.379Z,38.17
2018-11-04T11:31:33.330Z,31.33
2018-11-04T11:34:02.145Z,39.53
2018-11-04T11:36:29.823Z,35.60
2018-11-04T11:38:57.666Z,38.03
2018-11-04T11:41:25.543Z,35.80
2018-11-04T11:43:53.405Z,44.70
2018-11-04T11:46:21.339Z,38.90
2018-11-04T11:48:49.096Z,47.83
2018-11-04T11:51:16.826Z,36.40
2018-11-04T11:53:44.679Z,33.60
2018-11-04T11:56:12.454Z,40.43
2018-11-04T11:58:40.283Z,35.10
2018-11-04T12:01:08.109Z,42.50
2018-11-04T12:03:36.302Z,36.47
2018-11-04T12:06:04.397Z,35.17
2018-11-04T12:08:32.199Z,34.90
2018-11-04T12:11:00.563Z,32.70
2018-11-04T12:13:29.937Z,36.30
2018-11-04T12:29:32.539Z,43.83
2018-11-04T12:32:03.587Z,31.50
2018-11-04T12:34:31.819Z,33.83
2018-11-04T12:37:28.253Z,30.27
2018-11-04T12:40:03.842Z,33.40
2018-11-04T12:42:32.180Z,33.00
2018-11-04T12:45:01.539Z,31.00
2018-11-04T12:47:29.639Z,34.03
2018-11-04T12:49:58.376Z,34.60
2018-11-04T12:52:27.219Z,31.63
2018-11-04T12:54:54.888Z,32.90
2018-11-04T12:57:22.624Z,28.90
2018-11-04T12:59:50.571Z,29.10
2018-11-04T13:02:20.838Z,23.40
2018-11-04T13:04:48.919Z,23.13
2018-11-04T13:07:16.566Z,23.40
2018-11-04T13:09:44.288Z,22.90
2018-11-04T13:12:12.097Z,25.07
2018-11-04T13:14:40.101Z,21.67
2018-11-04T13:17:08.165Z,18.97
2018-11-04T13:19:36.490Z,21.47
2018-11-04T13:22:04.320Z,20.03
2018-11-04T13:24:33.927Z,24.27
2018-11-04T13:27:02.182Z,24.43
2018-11-04T13:29:35.735Z,22.63
2018-11-04T13:32:03.584Z,19.37
2018-11-04T13:34:43.383Z,20.10
2018-11-04T13:37:11.276Z,22.33
2018-11-04T13:39:38.878Z,19.60
2018-11-04T13:42:06.644Z,19.10
2018-11-04T13:44:35.855Z,18.60
2018-11-04T13:47:03.539Z,28.20
2018-11-04T13:49:32.682Z,22.80
2018-11-04T13:52:00.767Z,19.47
2018-11-04T13:54:29.237Z,20.73
2018-11-04T13:56:56.945Z,21.67
2018-11-04T13:59:25.484Z,15.83
2018-11-04T14:01:53.318Z,15.80
2018-11-04T14:04:21.033Z,19.30
2018-11-04T14:09:24.079Z,17.50
2018-11-04T14:11:53.596Z,20.00
2018-11-04T14:14:21.689Z,19.80
2018-11-04T14:16:49.423Z,15.20
2018-11-04T14:19:17.267Z,18.77
2018-11-04T14:21:46.982Z,16.03
2018-11-04T14:24:14.915Z,18.83
2018-11-04T14:26:46.815Z,16.13
2018-11-04T14:29:14.995Z,16.57
2018-11-04T14:31:42.647Z,15.33
2018-11-04T14:34:14.885Z,14.70
2018-11-04T14:36:42.540Z,18.20
2018-11-04T14:39:10.714Z,17.90
2018-11-04T14:41:38.420Z,15.27
2018-11-04T14:44:06.865Z,14.27
2018-11-04T14:46:36.392Z,14.20
2018-11-04T14:49:04.480Z,15.73
2018-11-04T14:51:32.081Z,12.03
2018-11-04T14:54:00.004Z,12.73
2018-11-04T14:56:28.571Z,13.83
2018-11-04T14:58:57.020Z,13.60
2018-11-04T15:01:24.864Z,14.70
2018-11-04T15:03:53.423Z,14.00
2018-11-04T15:06:23.058Z,13.37
2018-11-04T15:08:50.919Z,13.97
2018-11-04T15:11:19.406Z,14.00
2018-11-04T15:13:47.286Z,13.50
2018-11-04T15:16:14.945Z,19.33
2018-11-04T15:18:42.702Z,14.30
2018-11-04T15:21:10.326Z,15.10
2018-11-04T15:23:38.079Z,12.87
2018-11-04T15:26:06.085Z,13.00
2018-11-04T15:28:38.169Z,13.30
2018-11-04T15:31:06.024Z,19.60
2018-11-04T15:33:34.054Z,13.03
2018-11-04T15:36:02.165Z,15.70
2018-11-04T15:38:29.855Z,15.17
2018-11-04T15:40:58.631Z,15.50
2018-11-04T15:43:26.248Z,18.30
2018-11-04T15:45:54.087Z,14.43
2018-11-04T15:48:27.493Z,13.87
2018-11-04T15:50:56.840Z,14.87
2018-11-04T15:53:24.500Z,13.47
2018-11-04T15:55:57.258Z,11.87
2018-11-04T15:58:27.798Z,13.63
2018-11-04T16:00:55.762Z,14.50
2018-11-04T16:03:23.659Z,12.73
2018-11-04T16:05:55.318Z,12.00
2018-11-04T16:08:23.227Z,12.33
2018-11-04T16:11:05.594Z,12.07
2018-11-04T16:13:34.515Z,11.40
2018-11-04T16:16:02.350Z,12.77
2018-11-04T16:18:30.408Z,11.80
2018-11-04T16:20:58.120Z,10.53
2018-11-04T16:23:26.171Z,12.30
2018-11-04T16:25:56.507Z,10.07
2018-11-04T16:28:24.651Z,13.53
2018-11-04T16:30:52.920Z,27.30
2018-11-04T16:33:20.815Z,9.40
2018-11-04T16:35:48.540Z,13.00
2018-11-04T16:38:16.382Z,11.83
2018-11-04T16:40:44.216Z,18.27
2018-11-04T16:43:12.712Z,10.03
2018-11-04T16:45:40.596Z,12.43
2018-11-04T16:48:11.471Z,8.83
2018-11-04T16:50:47.413Z,11.53
2018-11-04T16:53:15.556Z,10.87
2018-11-04T16:55:43.550Z,12.00
2018-11-04T16:58:11.282Z,13.90
2018-11-04T17:00:41.287Z,13.80
2018-11-04T17:03:09.400Z,12.70
2018-11-04T17:05:37.242Z,17.40
2018-11-04T17:08:05.094Z,17.23
2018-11-04T17:10:33.984Z,14.73
2018-11-04T17:13:01.798Z,14.03
2018-11-04T17:15:29.454Z,15.33
2018-11-04T17:18:00.359Z,13.90
2018-11-04T17:20:29.324Z,26.80
2018-11-04T17:22:56.998Z,15.03
2018-11-04T17:25:24.641Z,16.40
2018-11-04T17:27:52.312Z,13.20
2018-11-04T17:30:24.965Z,12.67
2018-11-04T17:32:52.718Z,10.90
2018-11-04T17:35:26.979Z,12.07
2018-11-04T17:37:55.115Z,18.10
2018-11-04T17:40:23.038Z,14.60
2018-11-04T17:42:50.953Z,11.50
2018-11-04T17:45:23.422Z,11.77
2018-11-04T17:47:51.307Z,12.50
2018-11-04T17:50:19.858Z,18.73
2018-11-04T17:52:47.603Z,19.57
2018-11-04T17:55:15.333Z,15.67
2018-11-04T17:57:56.587Z,11.57
2018-11-04T18:00:30.877Z,19.40
2018-11-04T18:03:03.447Z,21.43
2018-11-04T18:05:31.295Z,20.13
2018-11-04T18:07:59.503Z,14.73
2018-11-04T18:10:31.267Z,20.07
2018-11-04T18:12:59.099Z,14.07
2018-11-04T18:15:26.768Z,16.00
2018-11-04T18:17:54.471Z,15.47
2018-11-04T18:20:22.306Z,14.10
2018-11-04T18:22:50.050Z,15.37
2018-11-04T18:25:18.050Z,22.87
2018-11-04T18:27:45.798Z,26.07
2018-11-04T18:30:16.213Z,19.87
2018-11-04T18:32:45.825Z,20.00
2018-11-04T18:35:14.657Z,18.97
2018-11-04T18:37:42.776Z,21.27
2018-11-04T18:40:13.037Z,23.50
2018-11-04T18:42:40.901Z,19.70
2018-11-04T18:45:11.227Z,23.20
2018-11-04T18:47:39.156Z,25.37
2018-11-04T18:50:08.962Z,24.97
2018-11-04T18:52:37.622Z,16.10
2018-11-04T18:55:26.526Z,16.73
2018-11-04T18:57:54.157Z,13.20
2018-11-04T19:00:21.782Z,16.17
2018-11-04T19:02:50.177Z,15.00
2018-11-04T19:05:18.611Z,15.20
2018-11-04T19:07:56.525Z,13.00
2018-11-04T19:10:24.238Z,15.03
2018-11-04T19:12:51.841Z,13.00
2018-11-04T19:15:19.860Z,19.17
2018-11-04T19:17:47.984Z,15.90
2018-11-04T19:20:16.001Z,13.53
2018-11-04T19:22:44.349Z,14.20
2018-11-04T19:25:24.419Z,11.40
2018-11-04T19:27:52.411Z,13.57
2018-11-04T19:30:21.265Z,13.60
2018-11-04T19:32:49.004Z,14.77
2018-11-04T19:35:18.346Z,12.63
2018-11-04T19:37:48.294Z,15.23
2018-11-04T19:40:20.855Z,10.57
2018-11-04T19:42:49.927Z,12.30
2018-11-04T19:45:18.151Z,10.90
2018-11-04T19:47:47.434Z,10.27
2018-11-04T19:50:15.118Z,11.13
2018-11-04T19:52:43.211Z,11.10
2018-11-04T19:55:12.459Z,9.30
2018-11-04T19:57:41.675Z,14.30
2018-11-04T20:00:10.861Z,13.60
2018-11-04T20:02:44.545Z,17.40
2018-11-04T20:05:13.145Z,15.23
2018-11-04T20:07:44.662Z,14.93
2018-11-04T20:10:17.133Z,13.97
2018-11-04T20:12:50.680Z,15.63
2018-11-04T20:17:54.162Z,16.47
2018-11-04T20:20:27.596Z,11.90
2018-11-04T20:22:56.977Z,13.03
2018-11-04T20:25:30.630Z,16.43
2018-11-04T20:28:00.377Z,14.27
2018-11-04T20:30:28.431Z,16.10
2018-11-04T20:33:03.385Z,17.70
2018-11-04T20:35:31.414Z,14.27
2018-11-04T20:38:00.474Z,20.20
2018-11-04T20:43:14.928Z,14.40
2018-11-04T20:46:00.777Z,14.27
2018-11-04T20:48:45.692Z,14.70
2018-11-04T20:51:18.391Z,14.70
2018-11-04T20:53:47.785Z,14.20
2018-11-04T20:56:22.626Z,13.10
2018-11-04T20:58:58.821Z,18.70
2018-11-04T21:01:29.529Z,15.47
2018-11-04T21:03:57.625Z,14.07
2018-11-04T21:06:30.553Z,13.97
2018-11-04T21:08:58.609Z,14.50
2018-11-04T21:11:36.328Z,13.50
2018-11-04T21:14:12.317Z,12.73
2018-11-04T21:16:58.467Z,18.90
2018-11-04T21:19:26.244Z,13.20
2018-11-04T21:21:53.896Z,15.20
2018-11-04T21:24:22.057Z,15.67
2018-11-04T21:26:49.764Z,18.87
2018-11-04T21:29:19.024Z,16.73
2018-11-04T21:37:53.469Z,17.60
2018-11-04T21:40:21.920Z,18.00
2018-11-04T21:42:50.021Z,39.57
2018-11-04T21:45:25.614Z,25.50
2018-11-04T21:47:56.269Z,23.70
2018-11-04T21:50:24.321Z,25.27
2018-11-04T21:52:52.242Z,22.20
2018-11-04T22:09:02.144Z,16.30
2018-11-04T22:11:30.554Z,15.10
2018-11-04T22:13:59.459Z,15.40
2018-11-04T22:16:45.334Z,13.43
2018-11-04T22:19:14.731Z,18.40
2018-11-04T22:21:42.726Z,19.60
2018-11-04T22:24:27.088Z,18.77
2018-11-04T22:30:01.902Z,17.13
2018-11-04T22:35:28.797Z,19.90
2018-11-04T22:40:59.764Z,14.60
2018-11-04T22:46:07.001Z,16.80
2018-11-04T22:48:56.392Z,15.67
2018-11-04T22:51:24.587Z,16.37
2018-11-04T22:53:56.370Z,16.27
2018-11-04T22:56:36.319Z,15.00
2018-11-04T22:59:18.423Z,15.00
2018-11-04T23:01:48.822Z,15.93
2018-11-04T23:07:03.813Z,15.80
2018-11-04T23:09:32.390Z,14.70
2018-11-04T23:12:23.659Z,16.30
2018-11-04T23:14:57.713Z,21.80
2018-11-04T23:17:25.737Z,14.43
2018-11-04T23:20:00.443Z,19.73
2018-11-04T23:22:28.594Z,15.40
2018-11-04T23:24:56.863Z,13.27
2018-11-04T23:27:49.463Z,13.17
2018-11-04T23:33:21.887Z,16.00
2018-11-04T23:35:55.158Z,18.50
2018-11-04T23:38:33.430Z,14.57
2018-11-04T23:41:01.762Z,16.73
2018-11-04T23:43:29.717Z,14.30
2018-11-04T23:45:57.840Z,16.47
2018-11-04T23:48:26.825Z,15.97
2018-11-04T23:50:55.612Z,17.37
2018-11-04T23:53:24.000Z,18.97
2018-11-04T23:55:51.671Z,16.17
2018-11-04T23:58:19.522Z,14.77
